Accueil
METAR-TAF:

METAR-TAF

Aéroports :

Base aérienne 126 Solenzara

Solenzara, France

latitude: 41-55N, longitude: 009-24E, altitude: 8 m

Observation

Le bulletin a été fait il y a 43 minutes, à 11:30 UTC
Vent 8 kt de sud-est, variant entre est et sud/sud-est
Température 30°C
Humidité 62%
Pression 1015 hPa
Visibilité 10 km ou plus
pas de nuages en-dessous de 1500 mètres et pas de cumulonimbus.

METAR: LFKS 181130Z AUTO 13008KT 100V160 CAVOK 30/22 Q1015

Heure: 14:13 (12:13 UTC)

Prévision

Le bulletin a été fait il y a 4 heures et 13 minutes, à 08:00 UTC
Prévision valable du 18 à 09 UTC au 19 à 09 UTC
Vent 10 kt de est/sud-est
Visibilité 10 km ou plus
pas de nuages en-dessous de 1500 mètres et pas de cumulonimbus.
Evoluant progressivement
du 18 à 18 UTC au 18 à 19 UTC
Vent 5 kt de ouest

TAF: LFKS 180800Z 1809/1909 12010KT CAVOK BECMG 1818/1819 28005KT

Observations et prévisions météorologiques de plus de 4000 aéroports (messages METAR et TAF).

Les stations disponibles sont représentées par des disques jaunes et rouges sur la carte.

Passer la souris dessus pour voir le nom de la station.

Cliquer dessus pour voir les observations et prévisions météorologiques.

Pour changer de carte: cliquez sur les boutons verts avec une croix noire pour zoomer, sur le bouton vert avec un tiret pour effectuer un zoom arrière, ou sur les flèches vertes pour les cartes adjacentes.


METAR-TAF: